• Join FlightAware (Why Join?)
  • Login
  • US Flag 
08:07PM EDT


 

Airport Tracker/Info


-or-


 

Live Flight TrackerFlight Track Log ✈ SBE970 ✈ 02-May-2013 ✈ KLBB - KADS

Flight Track Log - Related Links

Times and Time Zones

All times are in EDT time to prevent confusion due to time zone crossing. See the SBE970 flight status page for this flight to view local times or setup timezone preferences in your user account.

Time Position Orientation Groundspeed Altitude Reporting Facility
EDT Latitude Longitude Course Direction KTS MPH feet Rate Location/Type
06:01PM 33.8189 -100.6311 98° East 363 418 25,000  Level Fort Worth Center
06:02PM 33.8411 -100.4894 79° East 392 451 25,700 1,260 Climbing Fort Worth Center
06:03PM 33.8633 -100.3475 79° East 415 478 27,600 1,860 Climbing Fort Worth Center
06:04PM 33.8853 -100.2106 79° East 415 478 29,500 1,620 Climbing Fort Worth Center
06:05PM 33.9069 -100.0786 79° East 409 471 30,900 720 Climbing Fort Worth Center
06:06PM 33.4223 -99.9119 98° East  Level Estimated
06:06PM 33.9267 -99.9392 80° East 414 476 31,000  Level Fort Worth Center
06:07PM 33.9108 -99.7836 97° East 442 509 31,000  Level Fort Worth Center
06:08PM 33.8761 -99.6350 106° East 447 514 31,000  Level Fort Worth Center
06:09PM 33.8453 -99.4767 103° East 459 528 31,000  Level Fort Worth Center
06:10PM 33.8144 -99.3158 103° East 473 544 31,000  Level Fort Worth Center
06:11PM 33.7856 -99.1603 103° East 478 550 31,000  Level Fort Worth Center
06:12PM 33.7542 -99.0047 104° East 473 544 31,000 -300 Level Fort Worth Center
06:13PM 33.7247 -98.8519 103° East 473 544 30,400 -1,620 Descending Fort Worth Center
06:14PM 33.6931 -98.6942 104° East 473 544 27,800 -2,640 Descending Fort Worth Center
06:15PM 33.6631 -98.5439 103° East 473 544 25,200 -2,640 Descending Fort Worth Center
06:16PM 33.6353 -98.3989 103° East 461 531 22,600 -2,640 Descending Fort Worth Center
06:17PM 33.6092 -98.2589 103° East 441 507 20,000 -2,400 Descending Fort Worth Center
06:18PM 33.5786 -98.1267 105° East 427 491 17,900 -2,280 Descending Fort Worth Center
06:19PM 33.5542 -97.9992 103° East 399 459 15,500 -2,520 Descending Fort Worth Center
06:20PM 33.5275 -97.8719 104° East 386 444 12,900 -2,520 Descending Fort Worth Center
06:21PM 33.5031 -97.7547 104° East 386 444 10,500 -1,860 Descending Fort Worth Center
06:22PM 33.4844 -97.6625 104° East 341 392 9,200 -1,740 Descending Fort Worth Center
06:23PM 33.4658 -97.5678 103° East 300 345 7,100 -1,980 Descending Fort Worth Center
06:24PM 33.4492 -97.4831 103° East 281 323 5,300 -1,080 Descending Fort Worth Center
06:25PM 33.3864 -97.4061 134° Southeast 275 316 5,000 -180 Descending Fort Worth Center
06:26PM 33.3739 -97.3114 99° East 260 299 5,000  Level Fort Worth Center
06:27PM 33.3633 -97.2319 99° East 260 299 5,000  Level Fort Worth Center
06:28PM 33.3258 -97.1425 117° Southeast 266 306 5,000 -300 Level Fort Worth Center
06:29PM 33.2881 -97.0756 124° Southeast 276 318 4,500 -540 Descending Fort Worth Center
06:30PM 33.2336 -97.0011 131° Southeast 276 318 4,000 -300 Descending Fort Worth Center
06:31PM 33.1917 -96.9392 129° Southeast 251 289 4,000 -180 Level Fort Worth Center
06:32PM 33.1411 -96.8725 132° Southeast 257 296 3,700 -540 Descending Fort Worth Center
06:33PM 33.0867 -96.8133 138° Southeast 264 304 3,000 -540 Descending Fort Worth Center
06:33PM 33.0667 -96.8000 151° Southeast 255 293 3,000  Level Dallas / Fort Worth TRACON
06:34PM 33.0167 -96.7667 151° Southeast 236 272 3,000  Level Dallas / Fort Worth TRACON
06:35PM 32.9500 -96.7333 157° South 236 272 3,000  Level Dallas / Fort Worth TRACON
06:36PM 32.8833 -96.7167 168° South 253 291 3,000 -240 Level Dallas / Fort Worth TRACON
06:37PM 32.8500 -96.7500 220° Southwest 143 165 2,500 -420 Descending Dallas / Fort Worth TRACON
06:38PM 32.8667 -96.7833 301° West 135 155 2,200 -300 Descending Dallas / Fort Worth TRACON
06:39PM 32.9000 -96.8000 337° Northwest 130 150 1,900 -480 Descending Dallas / Fort Worth TRACON
06:40PM 32.9333 -96.8167 337° Northwest 121 139 1,300 -600 Descending Dallas / Fort Worth TRACON
06:42PM 32.9667 -96.8333 310° West  Level FlightAware Approximate